Kaisei Maru — JD3114 — position and weather

sailwx.info

Track history (hours):
 
Tides and Currents Weather Stations Pressure Air Temp Water Temp Dewpoint Dewpoint Depression Visibility Wind Speed Wind Dir Waves Ship Positions

Kaisei Maru

Last reported at 2014-Oct-01 05:33 UTC. Time now 2014-Oct-01 06:12 UTC.
Position N 34°41' E 135°12'.

Length 52 m; draft 3.2 m.

Type: Tanker. MMSI: 431001837.

Date/timePositionNaut miles runAvg speedWind from/ knotsBaromVisibWave heightAir tempDewpointWater temp
2014-Oct-01 05:33N 34°41' E 135°12'0 0.0
2014-Oct-01 04:27N 34°41' E 135°12'0 0.0
2014-Oct-01 03:27N 34°41' E 135°12'0 0.0
2014-Oct-01 02:33N 34°41' E 135°12'0 0.0
2014-Oct-01 01:33N 34°41' E 135°12'0 0.0
2014-Oct-01 00:33N 34°41' E 135°12'0 0.0
2014-Sep-30 23:21N 34°41' E 135°12'0 0.0
2014-Sep-30 22:33N 34°41' E 135°12'0 0.2
2014-Sep-30 21:34N 34°41' E 135°12'6 6.3
2014-Sep-30 20:33N 34°36' E 135°17'6 6.5
2014-Sep-30 19:34N 34°31' E 135°12'8 8.2
2014-Sep-30 18:33N 34°23' E 135°07'9 9.1
2014-Sep-30 17:33N 34°15' E 135°03'239 8.0
2014-Sep-29 11:33N 35°12' E 139°46'1010.1
2014-Sep-29 10:34N 35°21' E 139°42'10 9.6
2014-Sep-29 09:33N 35°29' E 139°50'2 0.1
2014-Sep-28 08:32N 35°30' E 139°49'3 1.4
2014-Sep-28 06:18N 35°30' E 139°45'0 0.0
2014-Sep-28 03:24N 35°30' E 139°45'0 0.0
2014-Sep-27 18:18N 35°30' E 139°45'0 0.0
2014-Sep-27 14:30N 35°30' E 139°45'0 0.0
2014-Sep-26 22:07N 35°30' E 139°45'2 3.1
2014-Sep-26 21:33N 35°30' E 139°43'3 2.9
2014-Sep-26 20:32N 35°27' E 139°42'0 0.0
2014-Sep-26 19:32N 35°27' E 139°42'0 0.0
2014-Sep-26 18:32N 35°27' E 139°42'0 0.0
2014-Sep-26 17:32N 35°27' E 139°42'0 0.0
2014-Sep-26 16:32N 35°27' E 139°42'0 0.0
2014-Sep-26 15:32N 35°27' E 139°42'0 0.0
2014-Sep-26 14:32N 35°27' E 139°42'0 0.0
2014-Sep-26 13:32N 35°27' E 139°42'0 0.0
2014-Sep-26 12:32N 35°27' E 139°42'0 0.0
2014-Sep-26 11:32N 35°27' E 139°42'1 1.2
2014-Sep-26 10:33N 35°27' E 139°41'2 1.8
2014-Sep-26 09:29N 35°29' E 139°40'0 0.0
2014-Sep-26 04:23N 35°29' E 139°40'1 0.8
2014-Sep-26 03:33N 35°29' E 139°40'2 2.4
2014-Sep-26 02:33N 35°27' E 139°42'0 0.0
2014-Sep-26 01:33N 35°27' E 139°42'0 0.0
2014-Sep-26 00:33N 35°27' E 139°42'0 0.0
2014-Sep-25 23:33N 35°27' E 139°42'0 0.0
2014-Sep-25 22:33N 35°27' E 139°42'0 0.0
2014-Sep-25 21:33N 35°27' E 139°42'0 0.0
2014-Sep-25 20:33N 35°27' E 139°42'0 0.0
2014-Sep-25 19:33N 35°27' E 139°42'0 0.0
2014-Sep-25 18:32N 35°27' E 139°42'0 0.0
2014-Sep-25 17:33N 35°27' E 139°42'0 0.0
2014-Sep-25 16:33N 35°27' E 139°42'0 0.0
2014-Sep-25 15:33N 35°27' E 139°42'0 0.0
2014-Sep-25 14:33N 35°27' E 139°42'0 0.0
2014-Sep-25 13:32N 35°27' E 139°42'0 0.0
2014-Sep-25 12:33N 35°27' E 139°42'0 0.0
2014-Sep-25 11:32N 35°27' E 139°42'0 0.0
2014-Sep-25 10:33N 35°27' E 139°42'0 0.0
2014-Sep-25 09:32N 35°27' E 139°42'0 0.0
2014-Sep-25 08:33N 35°27' E 139°42'0 0.1
2014-Sep-25 07:33N 35°27' E 139°42'0 0.0
2014-Sep-25 06:34N 35°27' E 139°42'0 0.0
2014-Sep-25 05:33N 35°27' E 139°42'0 0.0
2014-Sep-25 04:33N 35°27' E 139°42'0 0.0
2014-Sep-25 03:33N 35°27' E 139°42'0 0.1
2014-Sep-25 02:33N 35°27' E 139°42'0 0.1
2014-Sep-25 01:33N 35°27' E 139°42'0 0.0
2014-Sep-25 00:33N 35°27' E 139°42'0 0.0
2014-Sep-24 23:33N 35°27' E 139°42'0 0.0
2014-Sep-24 22:33N 35°27' E 139°42'0 0.0
2014-Sep-24 21:33N 35°27' E 139°42'0 0.0
2014-Sep-24 20:33N 35°27' E 139°42'0 0.0
2014-Sep-24 19:33N 35°27' E 139°42'0 0.0
2014-Sep-24 18:33N 35°27' E 139°42'0 0.0
2014-Sep-24 17:33N 35°27' E 139°42'0 0.0
2014-Sep-24 16:33N 35°27' E 139°42'0 0.0
2014-Sep-24 15:34N 35°27' E 139°42'0 0.0
2014-Sep-24 14:33N 35°27' E 139°42'0 0.0
2014-Sep-24 13:33N 35°27' E 139°42'0 0.0
2014-Sep-24 12:34N 35°27' E 139°42'0 0.0
2014-Sep-24 11:33N 35°27' E 139°42'0 0.0
2014-Sep-24 10:33N 35°27' E 139°42'  
2014-Sep-22 05:33N 35°30' E 139°47'2 1.7
2014-Sep-22 04:31N 35°29' E 139°48'0 0.1
2014-Sep-22 03:31N 35°29' E 139°48'0 0.0
2014-Sep-22 02:13N 35°29' E 139°48'0 0.0
2014-Sep-22 00:19N 35°29' E 139°48'0 0.1
2014-Sep-21 23:31N 35°29' E 139°48'0 0.0
2014-Sep-21 22:28N 35°29' E 139°48'0 0.1
2014-Sep-21 21:33N 35°29' E 139°48'9 9.4
2014-Sep-21 20:33N 35°20' E 139°45'9 8.9
2014-Sep-21 19:33N 35°11' E 139°46'  
Track history (hours):
 
Tides and Currents Weather Stations Pressure Air Temp Water Temp Dewpoint Dewpoint Depression Visibility Wind Speed Wind Dir Waves Ship Positions

Kaisei Maru

Last reported at 2014-Oct-01 05:33 UTC. Time now 2014-Oct-01 06:12 UTC.
Position N 34°41' E 135°12'.

Length 52 m; draft 3.2 m.

Type: Tanker. MMSI: 431001837.

Date/timePositionNaut miles runAvg speedWind from/ knotsBaromVisibWave heightAir tempDewpointWater temp
2014-Oct-01 05:33N 34°41' E 135°12'0 0.0
2014-Oct-01 04:27N 34°41' E 135°12'0 0.0
2014-Oct-01 03:27N 34°41' E 135°12'0 0.0
2014-Oct-01 02:33N 34°41' E 135°12'0 0.0
2014-Oct-01 01:33N 34°41' E 135°12'0 0.0
2014-Oct-01 00:33N 34°41' E 135°12'0 0.0
2014-Sep-30 23:21N 34°41' E 135°12'0 0.0
2014-Sep-30 22:33N 34°41' E 135°12'0 0.2
2014-Sep-30 21:34N 34°41' E 135°12'6 6.3
2014-Sep-30 20:33N 34°36' E 135°17'6 6.5
2014-Sep-30 19:34N 34°31' E 135°12'8 8.2
2014-Sep-30 18:33N 34°23' E 135°07'9 9.1
2014-Sep-30 17:33N 34°15' E 135°03'239 8.0
2014-Sep-29 11:33N 35°12' E 139°46'1010.1
2014-Sep-29 10:34N 35°21' E 139°42'10 9.6
2014-Sep-29 09:33N 35°29' E 139°50'2 0.1
2014-Sep-28 08:32N 35°30' E 139°49'3 1.4
2014-Sep-28 06:18N 35°30' E 139°45'0 0.0
2014-Sep-28 03:24N 35°30' E 139°45'0 0.0
2014-Sep-27 18:18N 35°30' E 139°45'0 0.0
2014-Sep-27 14:30N 35°30' E 139°45'0 0.0
2014-Sep-26 22:07N 35°30' E 139°45'2 3.1
2014-Sep-26 21:33N 35°30' E 139°43'3 2.9
2014-Sep-26 20:32N 35°27' E 139°42'0 0.0
2014-Sep-26 19:32N 35°27' E 139°42'0 0.0
2014-Sep-26 18:32N 35°27' E 139°42'0 0.0
2014-Sep-26 17:32N 35°27' E 139°42'0 0.0
2014-Sep-26 16:32N 35°27' E 139°42'0 0.0
2014-Sep-26 15:32N 35°27' E 139°42'0 0.0
2014-Sep-26 14:32N 35°27' E 139°42'0 0.0
2014-Sep-26 13:32N 35°27' E 139°42'0 0.0
2014-Sep-26 12:32N 35°27' E 139°42'0 0.0
2014-Sep-26 11:32N 35°27' E 139°42'1 1.2
2014-Sep-26 10:33N 35°27' E 139°41'2 1.8
2014-Sep-26 09:29N 35°29' E 139°40'0 0.0
2014-Sep-26 04:23N 35°29' E 139°40'1 0.8
2014-Sep-26 03:33N 35°29' E 139°40'2 2.4
2014-Sep-26 02:33N 35°27' E 139°42'0 0.0
2014-Sep-26 01:33N 35°27' E 139°42'0 0.0
2014-Sep-26 00:33N 35°27' E 139°42'0 0.0
2014-Sep-25 23:33N 35°27' E 139°42'0 0.0
2014-Sep-25 22:33N 35°27' E 139°42'0 0.0
2014-Sep-25 21:33N 35°27' E 139°42'0 0.0
2014-Sep-25 20:33N 35°27' E 139°42'0 0.0
2014-Sep-25 19:33N 35°27' E 139°42'0 0.0
2014-Sep-25 18:32N 35°27' E 139°42'0 0.0
2014-Sep-25 17:33N 35°27' E 139°42'0 0.0
2014-Sep-25 16:33N 35°27' E 139°42'0 0.0
2014-Sep-25 15:33N 35°27' E 139°42'0 0.0
2014-Sep-25 14:33N 35°27' E 139°42'0 0.0
2014-Sep-25 13:32N 35°27' E 139°42'0 0.0
2014-Sep-25 12:33N 35°27' E 139°42'0 0.0
2014-Sep-25 11:32N 35°27' E 139°42'0 0.0
2014-Sep-25 10:33N 35°27' E 139°42'0 0.0
2014-Sep-25 09:32N 35°27' E 139°42'0 0.0
2014-Sep-25 08:33N 35°27' E 139°42'0 0.1
2014-Sep-25 07:33N 35°27' E 139°42'0 0.0
2014-Sep-25 06:34N 35°27' E 139°42'0 0.0
2014-Sep-25 05:33N 35°27' E 139°42'0 0.0
2014-Sep-25 04:33N 35°27' E 139°42'0 0.0
2014-Sep-25 03:33N 35°27' E 139°42'0 0.1
2014-Sep-25 02:33N 35°27' E 139°42'0 0.1
2014-Sep-25 01:33N 35°27' E 139°42'0 0.0
2014-Sep-25 00:33N 35°27' E 139°42'0 0.0
2014-Sep-24 23:33N 35°27' E 139°42'0 0.0
2014-Sep-24 22:33N 35°27' E 139°42'0 0.0
2014-Sep-24 21:33N 35°27' E 139°42'0 0.0
2014-Sep-24 20:33N 35°27' E 139°42'0 0.0
2014-Sep-24 19:33N 35°27' E 139°42'0 0.0
2014-Sep-24 18:33N 35°27' E 139°42'0 0.0
2014-Sep-24 17:33N 35°27' E 139°42'0 0.0
2014-Sep-24 16:33N 35°27' E 139°42'0 0.0
2014-Sep-24 15:34N 35°27' E 139°42'0 0.0
2014-Sep-24 14:33N 35°27' E 139°42'0 0.0
2014-Sep-24 13:33N 35°27' E 139°42'0 0.0
2014-Sep-24 12:34N 35°27' E 139°42'0 0.0
2014-Sep-24 11:33N 35°27' E 139°42'0 0.0
2014-Sep-24 10:33N 35°27' E 139°42'  
2014-Sep-22 05:33N 35°30' E 139°47'2 1.7
2014-Sep-22 04:31N 35°29' E 139°48'0 0.1
2014-Sep-22 03:31N 35°29' E 139°48'0 0.0
2014-Sep-22 02:13N 35°29' E 139°48'0 0.0
2014-Sep-22 00:19N 35°29' E 139°48'0 0.1
2014-Sep-21 23:31N 35°29' E 139°48'0 0.0
2014-Sep-21 22:28N 35°29' E 139°48'0 0.1
2014-Sep-21 21:33N 35°29' E 139°48'9 9.4
2014-Sep-21 20:33N 35°20' E 139°45'9 8.9
2014-Sep-21 19:33N 35°11' E 139°46'  

Dump ship's entire track history